sensor_id;sensor_type;location;lat;lon;timestamp;P1;durP1;ratioP1;P2;durP2;ratioP2
10059;SDS011;5069;49.306;8.636;2023-06-26T00:00:39;6.43;;;5.28;;
10059;SDS011;5069;49.306;8.636;2023-06-26T00:03:41;6.03;;;5.53;;
10059;SDS011;5069;49.306;8.636;2023-06-26T00:06:42;7.13;;;5.50;;
10059;SDS011;5069;49.306;8.636;2023-06-26T00:09:44;5.85;;;5.35;;
10059;SDS011;5069;49.306;8.636;2023-06-26T00:12:45;8.02;;;6.03;;
10059;SDS011;5069;49.306;8.636;2023-06-26T00:15:47;6.13;;;5.47;;
10059;SDS011;5069;49.306;8.636;2023-06-26T00:18:48;6.57;;;5.97;;
10059;SDS011;5069;49.306;8.636;2023-06-26T00:21:50;5.88;;;5.35;;
10059;SDS011;5069;49.306;8.636;2023-06-26T00:24:51;5.75;;;5.20;;
10059;SDS011;5069;49.306;8.636;2023-06-26T00:27:53;5.90;;;5.40;;
10059;SDS011;5069;49.306;8.636;2023-06-26T00:30:54;6.03;;;5.53;;
10059;SDS011;5069;49.306;8.636;2023-06-26T00:33:56;6.37;;;5.77;;
10059;SDS011;5069;49.306;8.636;2023-06-26T00:36:58;6.47;;;5.80;;
10059;SDS011;5069;49.306;8.636;2023-06-26T00:39:59;6.27;;;5.67;;
10059;SDS011;5069;49.306;8.636;2023-06-26T00:43:01;6.30;;;5.57;;
10059;SDS011;5069;49.306;8.636;2023-06-26T00:46:03;5.97;;;5.47;;
10059;SDS011;5069;49.306;8.636;2023-06-26T00:49:04;5.72;;;5.22;;
10059;SDS011;5069;49.306;8.636;2023-06-26T00:52:07;6.22;;;5.63;;
10059;SDS011;5069;49.306;8.636;2023-06-26T00:55:08;6.70;;;5.70;;
10059;SDS011;5069;49.306;8.636;2023-06-26T00:58:10;6.10;;;5.50;;
10059;SDS011;5069;49.306;8.636;2023-06-26T01:01:12;5.97;;;5.47;;
10059;SDS011;5069;49.306;8.636;2023-06-26T01:04:18;6.93;;;5.53;;
10059;SDS011;5069;49.306;8.636;2023-06-26T01:07:20;6.10;;;5.60;;
10059;SDS011;5069;49.306;8.636;2023-06-26T01:10:23;6.90;;;5.90;;
10059;SDS011;5069;49.306;8.636;2023-06-26T01:13:25;6.70;;;6.07;;
10059;SDS011;5069;49.306;8.636;2023-06-26T01:16:27;6.67;;;6.07;;
10059;SDS011;5069;49.306;8.636;2023-06-26T01:19:31;6.20;;;5.60;;
10059;SDS011;5069;49.306;8.636;2023-06-26T01:22:48;6.57;;;5.70;;
10059;SDS011;5069;49.306;8.636;2023-06-26T01:26:21;6.40;;;5.80;;
10059;SDS011;5069;49.306;8.636;2023-06-26T01:29:23;6.87;;;5.77;;
10059;SDS011;5069;49.306;8.636;2023-06-26T01:32:28;6.90;;;6.30;;
10059;SDS011;5069;49.306;8.636;2023-06-26T01:35:30;6.87;;;6.13;;
10059;SDS011;5069;49.306;8.636;2023-06-26T01:38:33;6.07;;;5.40;;
10059;SDS011;5069;49.306;8.636;2023-06-26T01:41:36;6.37;;;5.73;;
10059;SDS011;5069;49.306;8.636;2023-06-26T01:44:39;6.10;;;5.50;;
10059;SDS011;5069;49.306;8.636;2023-06-26T01:47:47;6.43;;;5.83;;
10059;SDS011;5069;49.306;8.636;2023-06-26T01:50:52;6.37;;;5.77;;
10059;SDS011;5069;49.306;8.636;2023-06-26T01:53:55;6.60;;;5.90;;
10059;SDS011;5069;49.306;8.636;2023-06-26T01:57:00;6.60;;;5.90;;
10059;SDS011;5069;49.306;8.636;2023-06-26T02:00:02;6.77;;;6.13;;
10059;SDS011;5069;49.306;8.636;2023-06-26T02:03:13;6.90;;;6.20;;
10059;SDS011;5069;49.306;8.636;2023-06-26T02:06:15;7.60;;;6.50;;
10059;SDS011;5069;49.306;8.636;2023-06-26T02:09:16;6.73;;;6.07;;
10059;SDS011;5069;49.306;8.636;2023-06-26T02:12:18;7.30;;;6.20;;
10059;SDS011;5069;49.306;8.636;2023-06-26T02:15:20;7.77;;;6.43;;
10059;SDS011;5069;49.306;8.636;2023-06-26T02:18:21;7.80;;;5.97;;
10059;SDS011;5069;49.306;8.636;2023-06-26T02:21:24;7.57;;;6.00;;
10059;SDS011;5069;49.306;8.636;2023-06-26T02:24:25;6.37;;;5.73;;
10059;SDS011;5069;49.306;8.636;2023-06-26T02:27:32;6.90;;;6.20;;
10059;SDS011;5069;49.306;8.636;2023-06-26T02:30:33;6.47;;;5.87;;
10059;SDS011;5069;49.306;8.636;2023-06-26T02:33:34;6.87;;;6.27;;
10059;SDS011;5069;49.306;8.636;2023-06-26T02:36:36;6.60;;;6.00;;
10059;SDS011;5069;49.306;8.636;2023-06-26T02:39:39;6.67;;;5.97;;
10059;SDS011;5069;49.306;8.636;2023-06-26T02:42:43;8.10;;;6.37;;
10059;SDS011;5069;49.306;8.636;2023-06-26T02:45:45;6.57;;;5.73;;
10059;SDS011;5069;49.306;8.636;2023-06-26T02:48:47;9.03;;;6.33;;
10059;SDS011;5069;49.306;8.636;2023-06-26T02:51:48;6.60;;;6.00;;
10059;SDS011;5069;49.306;8.636;2023-06-26T02:54:57;7.60;;;6.77;;
10059;SDS011;5069;49.306;8.636;2023-06-26T02:57:58;6.47;;;5.87;;
10059;SDS011;5069;49.306;8.636;2023-06-26T03:01:00;6.53;;;5.93;;
10059;SDS011;5069;49.306;8.636;2023-06-26T03:04:02;6.83;;;5.70;;
10059;SDS011;5069;49.306;8.636;2023-06-26T03:07:04;6.60;;;5.67;;
10059;SDS011;5069;49.306;8.636;2023-06-26T03:10:06;7.23;;;5.97;;
10059;SDS011;5069;49.306;8.636;2023-06-26T03:13:08;7.00;;;6.30;;
10059;SDS011;5069;49.306;8.636;2023-06-26T03:16:09;7.43;;;5.90;;
10059;SDS011;5069;49.306;8.636;2023-06-26T03:19:11;6.97;;;6.37;;
10059;SDS011;5069;49.306;8.636;2023-06-26T03:22:33;6.73;;;6.13;;
10059;SDS011;5069;49.306;8.636;2023-06-26T03:25:35;7.97;;;6.77;;
10059;SDS011;5069;49.306;8.636;2023-06-26T03:28:57;7.63;;;6.40;;
10059;SDS011;5069;49.306;8.636;2023-06-26T03:31:58;6.73;;;6.13;;
10059;SDS011;5069;49.306;8.636;2023-06-26T03:35:00;6.87;;;6.17;;
10059;SDS011;5069;49.306;8.636;2023-06-26T03:38:07;6.57;;;5.90;;
10059;SDS011;5069;49.306;8.636;2023-06-26T03:41:08;6.97;;;6.30;;
10059;SDS011;5069;49.306;8.636;2023-06-26T03:44:10;6.87;;;6.17;;
10059;SDS011;5069;49.306;8.636;2023-06-26T03:47:19;8.00;;;6.00;;
10059;SDS011;5069;49.306;8.636;2023-06-26T03:50:20;12.37;;;6.10;;
10059;SDS011;5069;49.306;8.636;2023-06-26T03:53:23;7.00;;;6.40;;
10059;SDS011;5069;49.306;8.636;2023-06-26T03:56:25;6.90;;;6.20;;
10059;SDS011;5069;49.306;8.636;2023-06-26T03:59:27;7.37;;;6.60;;
10059;SDS011;5069;49.306;8.636;2023-06-26T04:02:28;6.73;;;6.03;;
10059;SDS011;5069;49.306;8.636;2023-06-26T04:05:30;7.00;;;6.30;;
10059;SDS011;5069;49.306;8.636;2023-06-26T04:08:32;9.10;;;6.60;;
10059;SDS011;5069;49.306;8.636;2023-06-26T04:11:33;8.70;;;5.80;;
10059;SDS011;5069;49.306;8.636;2023-06-26T04:14:35;6.67;;;6.07;;
10059;SDS011;5069;49.306;8.636;2023-06-26T04:17:36;8.43;;;7.00;;
10059;SDS011;5069;49.306;8.636;2023-06-26T04:20:39;7.60;;;6.80;;
10059;SDS011;5069;49.306;8.636;2023-06-26T04:23:42;7.20;;;6.50;;
10059;SDS011;5069;49.306;8.636;2023-06-26T04:26:43;8.37;;;6.30;;
10059;SDS011;5069;49.306;8.636;2023-06-26T04:29:47;7.57;;;6.87;;
10059;SDS011;5069;49.306;8.636;2023-06-26T04:32:48;7.60;;;6.90;;
10059;SDS011;5069;49.306;8.636;2023-06-26T04:35:50;7.60;;;6.90;;
10059;SDS011;5069;49.306;8.636;2023-06-26T04:38:52;7.53;;;6.83;;
10059;SDS011;5069;49.306;8.636;2023-06-26T04:41:54;6.87;;;6.17;;
10059;SDS011;5069;49.306;8.636;2023-06-26T04:44:55;6.93;;;6.23;;
10059;SDS011;5069;49.306;8.636;2023-06-26T04:47:56;8.20;;;6.60;;
10059;SDS011;5069;49.306;8.636;2023-06-26T04:51:00;7.37;;;6.73;;
10059;SDS011;5069;49.306;8.636;2023-06-26T04:54:01;7.77;;;6.63;;
10059;SDS011;5069;49.306;8.636;2023-06-26T04:57:04;8.67;;;6.87;;
10059;SDS011;5069;49.306;8.636;2023-06-26T05:00:06;7.47;;;6.73;;
10059;SDS011;5069;49.306;8.636;2023-06-26T05:03:12;7.53;;;6.83;;
10059;SDS011;5069;49.306;8.636;2023-06-26T05:06:15;7.90;;;6.70;;
10059;SDS011;5069;49.306;8.636;2023-06-26T05:09:16;7.87;;;6.80;;
10059;SDS011;5069;49.306;8.636;2023-06-26T05:12:18;7.30;;;6.60;;
10059;SDS011;5069;49.306;8.636;2023-06-26T05:15:19;7.60;;;6.80;;
10059;SDS011;5069;49.306;8.636;2023-06-26T05:18:21;8.50;;;7.33;;
10059;SDS011;5069;49.306;8.636;2023-06-26T05:21:22;8.87;;;7.00;;
10059;SDS011;5069;49.306;8.636;2023-06-26T05:24:24;9.20;;;6.70;;
10059;SDS011;5069;49.306;8.636;2023-06-26T05:27:27;7.93;;;7.20;;
10059;SDS011;5069;49.306;8.636;2023-06-26T05:30:28;8.27;;;7.43;;
10059;SDS011;5069;49.306;8.636;2023-06-26T05:33:33;9.77;;;7.43;;
10059;SDS011;5069;49.306;8.636;2023-06-26T05:36:36;10.03;;;7.40;;
10059;SDS011;5069;49.306;8.636;2023-06-26T05:39:38;8.33;;;7.20;;
10059;SDS011;5069;49.306;8.636;2023-06-26T05:42:40;10.47;;;7.30;;
10059;SDS011;5069;49.306;8.636;2023-06-26T05:45:41;7.87;;;7.10;;
10059;SDS011;5069;49.306;8.636;2023-06-26T05:48:43;9.57;;;7.60;;
10059;SDS011;5069;49.306;8.636;2023-06-26T05:51:44;8.80;;;6.97;;
10059;SDS011;5069;49.306;8.636;2023-06-26T05:54:47;9.83;;;7.33;;
10059;SDS011;5069;49.306;8.636;2023-06-26T05:57:48;10.57;;;7.20;;
10059;SDS011;5069;49.306;8.636;2023-06-26T06:00:51;8.33;;;7.03;;
10059;SDS011;5069;49.306;8.636;2023-06-26T06:03:53;11.57;;;7.63;;
10059;SDS011;5069;49.306;8.636;2023-06-26T06:06:54;7.43;;;6.73;;
10059;SDS011;5069;49.306;8.636;2023-06-26T06:09:56;9.03;;;7.03;;
10059;SDS011;5069;49.306;8.636;2023-06-26T06:12:57;8.00;;;7.27;;
10059;SDS011;5069;49.306;8.636;2023-06-26T06:15:59;8.20;;;7.40;;
10059;SDS011;5069;49.306;8.636;2023-06-26T06:19:00;8.57;;;7.40;;
10059;SDS011;5069;49.306;8.636;2023-06-26T06:22:04;8.40;;;7.57;;
10059;SDS011;5069;49.306;8.636;2023-06-26T06:25:06;12.13;;;8.33;;
10059;SDS011;5069;49.306;8.636;2023-06-26T06:28:07;8.83;;;7.93;;
10059;SDS011;5069;49.306;8.636;2023-06-26T06:31:09;9.03;;;7.23;;
10059;SDS011;5069;49.306;8.636;2023-06-26T06:34:10;9.52;;;7.60;;
10059;SDS011;5069;49.306;8.636;2023-06-26T06:37:13;8.43;;;7.53;;
10059;SDS011;5069;49.306;8.636;2023-06-26T06:40:14;9.97;;;7.53;;
10059;SDS011;5069;49.306;8.636;2023-06-26T06:43:16;7.70;;;7.00;;
10059;SDS011;5069;49.306;8.636;2023-06-26T06:46:17;8.30;;;7.50;;
10059;SDS011;5069;49.306;8.636;2023-06-26T06:49:19;9.95;;;7.13;;
10059;SDS011;5069;49.306;8.636;2023-06-26T06:52:20;12.73;;;7.85;;
10059;SDS011;5069;49.306;8.636;2023-06-26T06:55:22;8.32;;;7.55;;
10059;SDS011;5069;49.306;8.636;2023-06-26T06:58:24;9.95;;;8.00;;
10059;SDS011;5069;49.306;8.636;2023-06-26T07:01:26;8.48;;;7.32;;
10059;SDS011;5069;49.306;8.636;2023-06-26T07:04:27;11.65;;;7.55;;
10059;SDS011;5069;49.306;8.636;2023-06-26T07:07:29;10.20;;;7.85;;
10059;SDS011;5069;49.306;8.636;2023-06-26T07:10:32;9.60;;;7.90;;
10059;SDS011;5069;49.306;8.636;2023-06-26T07:13:34;9.82;;;7.60;;
10059;SDS011;5069;49.306;8.636;2023-06-26T07:16:35;8.68;;;7.78;;
10059;SDS011;5069;49.306;8.636;2023-06-26T07:19:37;8.05;;;7.25;;
10059;SDS011;5069;49.306;8.636;2023-06-26T07:22:39;7.60;;;6.90;;
10059;SDS011;5069;49.306;8.636;2023-06-26T07:25:40;7.32;;;6.63;;
10059;SDS011;5069;49.306;8.636;2023-06-26T07:28:41;12.95;;;7.47;;
10059;SDS011;5069;49.306;8.636;2023-06-26T07:31:43;9.05;;;7.10;;
10059;SDS011;5069;49.306;8.636;2023-06-26T07:34:46;8.55;;;6.47;;
10059;SDS011;5069;49.306;8.636;2023-06-26T07:37:48;8.52;;;7.05;;
10059;SDS011;5069;49.306;8.636;2023-06-26T07:40:49;7.10;;;6.40;;
10059;SDS011;5069;49.306;8.636;2023-06-26T07:43:51;8.32;;;6.63;;
10059;SDS011;5069;49.306;8.636;2023-06-26T07:46:52;7.60;;;6.72;;
10059;SDS011;5069;49.306;8.636;2023-06-26T07:49:54;7.18;;;6.10;;
10059;SDS011;5069;49.306;8.636;2023-06-26T07:52:55;10.82;;;7.20;;
10059;SDS011;5069;49.306;8.636;2023-06-26T07:55:57;8.85;;;6.55;;
10059;SDS011;5069;49.306;8.636;2023-06-26T07:58:58;7.07;;;6.38;;
10059;SDS011;5069;49.306;8.636;2023-06-26T08:02:01;7.32;;;6.63;;
10059;SDS011;5069;49.306;8.636;2023-06-26T08:05:03;8.95;;;6.28;;
10059;SDS011;5069;49.306;8.636;2023-06-26T08:08:05;6.80;;;6.20;;
10059;SDS011;5069;49.306;8.636;2023-06-26T08:11:07;7.50;;;6.80;;
10059;SDS011;5069;49.306;8.636;2023-06-26T08:14:09;7.90;;;7.20;;
10059;SDS011;5069;49.306;8.636;2023-06-26T08:17:10;8.75;;;6.45;;
10059;SDS011;5069;49.306;8.636;2023-06-26T08:20:12;8.98;;;7.03;;
10059;SDS011;5069;49.306;8.636;2023-06-26T08:23:14;9.32;;;6.55;;
10059;SDS011;5069;49.306;8.636;2023-06-26T08:26:15;7.93;;;7.13;;
10059;SDS011;5069;49.306;8.636;2023-06-26T08:29:16;9.98;;;6.65;;
10059;SDS011;5069;49.306;8.636;2023-06-26T08:32:18;8.82;;;6.88;;
10059;SDS011;5069;49.306;8.636;2023-06-26T08:35:20;9.20;;;6.43;;
10059;SDS011;5069;49.306;8.636;2023-06-26T08:38:21;7.78;;;7.03;;
10059;SDS011;5069;49.306;8.636;2023-06-26T08:41:23;9.38;;;6.28;;
10059;SDS011;5069;49.306;8.636;2023-06-26T08:44:25;7.82;;;6.40;;
10059;SDS011;5069;49.306;8.636;2023-06-26T08:47:27;7.00;;;6.30;;
10059;SDS011;5069;49.306;8.636;2023-06-26T08:50:31;8.02;;;6.72;;
10059;SDS011;5069;49.306;8.636;2023-06-26T08:53:57;9.20;;;6.60;;
10059;SDS011;5069;49.306;8.636;2023-06-26T08:56:59;7.93;;;6.93;;
10059;SDS011;5069;49.306;8.636;2023-06-26T09:00:00;7.05;;;6.38;;
10059;SDS011;5069;49.306;8.636;2023-06-26T09:03:03;7.32;;;6.70;;
10059;SDS011;5069;49.306;8.636;2023-06-26T09:06:05;6.72;;;6.15;;
10059;SDS011;5069;49.306;8.636;2023-06-26T09:09:06;7.10;;;6.40;;
10059;SDS011;5069;49.306;8.636;2023-06-26T09:12:09;7.00;;;6.40;;
10059;SDS011;5069;49.306;8.636;2023-06-26T09:15:11;7.40;;;6.80;;
10059;SDS011;5069;49.306;8.636;2023-06-26T09:18:17;7.15;;;6.45;;
10059;SDS011;5069;49.306;8.636;2023-06-26T09:21:21;8.02;;;7.20;;
10059;SDS011;5069;49.306;8.636;2023-06-26T09:24:23;7.65;;;6.90;;
10059;SDS011;5069;49.306;8.636;2023-06-26T09:27:26;7.55;;;6.85;;
10059;SDS011;5069;49.306;8.636;2023-06-26T09:30:27;11.90;;;7.10;;
10059;SDS011;5069;49.306;8.636;2023-06-26T09:33:32;8.40;;;6.55;;
10059;SDS011;5069;49.306;8.636;2023-06-26T09:36:37;7.30;;;6.60;;
10059;SDS011;5069;49.306;8.636;2023-06-26T09:39:41;7.32;;;6.63;;
10059;SDS011;5069;49.306;8.636;2023-06-26T09:42:42;7.13;;;6.43;;
10059;SDS011;5069;49.306;8.636;2023-06-26T09:45:43;8.95;;;6.75;;
10059;SDS011;5069;49.306;8.636;2023-06-26T09:48:45;7.53;;;6.28;;
10059;SDS011;5069;49.306;8.636;2023-06-26T09:51:47;7.53;;;6.82;;
10059;SDS011;5069;49.306;8.636;2023-06-26T09:54:50;7.20;;;6.38;;
10059;SDS011;5069;49.306;8.636;2023-06-26T09:57:51;7.25;;;6.55;;
10059;SDS011;5069;49.306;8.636;2023-06-26T10:00:57;7.50;;;6.80;;
10059;SDS011;5069;49.306;8.636;2023-06-26T10:03:59;7.10;;;6.40;;
10059;SDS011;5069;49.306;8.636;2023-06-26T10:07:06;6.80;;;6.05;;
10059;SDS011;5069;49.306;8.636;2023-06-26T10:10:11;8.00;;;7.13;;
10059;SDS011;5069;49.306;8.636;2023-06-26T10:13:15;7.18;;;6.22;;
10059;SDS011;5069;49.306;8.636;2023-06-26T10:16:22;9.82;;;6.32;;
10059;SDS011;5069;49.306;8.636;2023-06-26T10:19:26;8.68;;;6.35;;
10059;SDS011;5069;49.306;8.636;2023-06-26T10:22:29;9.30;;;6.05;;
10059;SDS011;5069;49.306;8.636;2023-06-26T10:25:35;6.90;;;6.30;;
10059;SDS011;5069;49.306;8.636;2023-06-26T10:28:42;7.85;;;6.55;;
10059;SDS011;5069;49.306;8.636;2023-06-26T10:31:48;9.73;;;6.50;;
10059;SDS011;5069;49.306;8.636;2023-06-26T10:34:52;6.75;;;6.05;;
10059;SDS011;5069;49.306;8.636;2023-06-26T10:37:59;9.82;;;6.70;;
10059;SDS011;5069;49.306;8.636;2023-06-26T10:41:12;10.82;;;6.60;;
10059;SDS011;5069;49.306;8.636;2023-06-26T10:44:17;7.70;;;6.95;;
10059;SDS011;5069;49.306;8.636;2023-06-26T10:47:28;9.52;;;7.10;;
10059;SDS011;5069;49.306;8.636;2023-06-26T10:50:32;7.18;;;6.35;;
10059;SDS011;5069;49.306;8.636;2023-06-26T10:53:39;7.72;;;6.32;;
10059;SDS011;5069;49.306;8.636;2023-06-26T10:56:44;8.43;;;6.50;;
10059;SDS011;5069;49.306;8.636;2023-06-26T11:00:07;10.68;;;7.30;;
10059;SDS011;5069;49.306;8.636;2023-06-26T11:03:24;9.48;;;6.90;;
10059;SDS011;5069;49.306;8.636;2023-06-26T11:06:26;8.48;;;6.35;;
10059;SDS011;5069;49.306;8.636;2023-06-26T11:09:27;11.13;;;6.95;;
10059;SDS011;5069;49.306;8.636;2023-06-26T11:15:44;6.93;;;6.22;;
10059;SDS011;5069;49.306;8.636;2023-06-26T11:18:46;8.15;;;6.78;;
10059;SDS011;5069;49.306;8.636;2023-06-26T11:21:47;7.40;;;6.55;;
10059;SDS011;5069;49.306;8.636;2023-06-26T11:24:49;7.88;;;6.68;;
10059;SDS011;5069;49.306;8.636;2023-06-26T11:27:55;8.82;;;7.10;;
10059;SDS011;5069;49.306;8.636;2023-06-26T11:30:56;8.32;;;7.10;;
10059;SDS011;5069;49.306;8.636;2023-06-26T11:34:02;7.97;;;6.75;;
10059;SDS011;5069;49.306;8.636;2023-06-26T11:37:05;9.15;;;6.85;;
10059;SDS011;5069;49.306;8.636;2023-06-26T11:40:18;7.93;;;7.13;;
10059;SDS011;5069;49.306;8.636;2023-06-26T11:43:20;13.00;;;6.53;;
10059;SDS011;5069;49.306;8.636;2023-06-26T11:46:22;8.85;;;6.63;;
10059;SDS011;5069;49.306;8.636;2023-06-26T11:49:24;11.07;;;6.57;;
10059;SDS011;5069;49.306;8.636;2023-06-26T11:52:27;7.97;;;7.18;;
10059;SDS011;5069;49.306;8.636;2023-06-26T11:55:39;7.78;;;6.57;;
10059;SDS011;5069;49.306;8.636;2023-06-26T11:59:01;7.82;;;7.03;;
10059;SDS011;5069;49.306;8.636;2023-06-26T12:02:09;7.55;;;6.70;;
10059;SDS011;5069;49.306;8.636;2023-06-26T12:05:18;11.20;;;6.53;;
10059;SDS011;5069;49.306;8.636;2023-06-26T12:08:20;8.68;;;6.63;;
10059;SDS011;5069;49.306;8.636;2023-06-26T12:11:22;7.00;;;6.30;;
10059;SDS011;5069;49.306;8.636;2023-06-26T12:14:25;7.00;;;5.90;;
10059;SDS011;5069;49.306;8.636;2023-06-26T12:17:29;6.60;;;6.00;;
10059;SDS011;5069;49.306;8.636;2023-06-26T12:20:31;8.85;;;6.22;;
10059;SDS011;5069;49.306;8.636;2023-06-26T12:23:33;7.95;;;5.78;;
10059;SDS011;5069;49.306;8.636;2023-06-26T12:26:50;7.78;;;5.85;;
10059;SDS011;5069;49.306;8.636;2023-06-26T12:29:57;10.13;;;5.78;;
10059;SDS011;5069;49.306;8.636;2023-06-26T12:32:59;7.28;;;5.43;;
10059;SDS011;5069;49.306;8.636;2023-06-26T12:36:02;7.53;;;4.85;;
10059;SDS011;5069;49.306;8.636;2023-06-26T12:39:04;5.30;;;4.82;;
10059;SDS011;5069;49.306;8.636;2023-06-26T12:42:06;6.00;;;4.50;;
10059;SDS011;5069;49.306;8.636;2023-06-26T12:45:11;5.25;;;4.50;;
10059;SDS011;5069;49.306;8.636;2023-06-26T12:48:36;5.18;;;3.90;;
10059;SDS011;5069;49.306;8.636;2023-06-26T12:51:38;5.90;;;4.18;;
10059;SDS011;5069;49.306;8.636;2023-06-26T12:54:42;7.40;;;4.85;;
10059;SDS011;5069;49.306;8.636;2023-06-26T12:57:44;6.57;;;3.85;;
10059;SDS011;5069;49.306;8.636;2023-06-26T13:00:46;7.70;;;3.97;;
10059;SDS011;5069;49.306;8.636;2023-06-26T13:03:47;5.13;;;4.60;;
10059;SDS011;5069;49.306;8.636;2023-06-26T13:06:49;5.20;;;4.13;;
10059;SDS011;5069;49.306;8.636;2023-06-26T13:09:51;7.50;;;4.32;;
10059;SDS011;5069;49.306;8.636;2023-06-26T13:12:52;6.22;;;5.00;;
10059;SDS011;5069;49.306;8.636;2023-06-26T13:15:54;7.32;;;4.78;;
10059;SDS011;5069;49.306;8.636;2023-06-26T13:18:57;5.65;;;4.43;;
10059;SDS011;5069;49.306;8.636;2023-06-26T13:22:00;7.43;;;4.55;;
10059;SDS011;5069;49.306;8.636;2023-06-26T13:25:03;5.85;;;4.32;;
10059;SDS011;5069;49.306;8.636;2023-06-26T13:28:05;6.55;;;4.25;;
10059;SDS011;5069;49.306;8.636;2023-06-26T13:31:06;7.00;;;4.80;;
10059;SDS011;5069;49.306;8.636;2023-06-26T13:34:08;5.60;;;5.10;;
10059;SDS011;5069;49.306;8.636;2023-06-26T13:37:09;7.05;;;5.68;;
10059;SDS011;5069;49.306;8.636;2023-06-26T13:40:11;7.05;;;5.03;;
10059;SDS011;5069;49.306;8.636;2023-06-26T13:43:13;7.22;;;5.28;;
10059;SDS011;5069;49.306;8.636;2023-06-26T13:46:15;7.70;;;5.47;;
10059;SDS011;5069;49.306;8.636;2023-06-26T13:49:18;6.45;;;5.85;;
10059;SDS011;5069;49.306;8.636;2023-06-26T13:52:20;7.63;;;6.82;;
10059;SDS011;5069;49.306;8.636;2023-06-26T13:55:21;8.75;;;7.53;;
10059;SDS011;5069;49.306;8.636;2023-06-26T13:58:24;8.18;;;7.03;;
10059;SDS011;5069;49.306;8.636;2023-06-26T14:01:28;8.45;;;7.40;;
10059;SDS011;5069;49.306;8.636;2023-06-26T14:04:29;9.73;;;7.47;;
10059;SDS011;5069;49.306;8.636;2023-06-26T14:07:32;9.43;;;8.10;;
10059;SDS011;5069;49.306;8.636;2023-06-26T14:10:34;11.63;;;7.90;;
10059;SDS011;5069;49.306;8.636;2023-06-26T14:13:35;12.50;;;8.48;;
10059;SDS011;5069;49.306;8.636;2023-06-26T14:16:37;14.20;;;8.65;;
10059;SDS011;5069;49.306;8.636;2023-06-26T14:19:38;9.43;;;8.07;;
10059;SDS011;5069;49.306;8.636;2023-06-26T14:22:42;11.32;;;7.18;;
10059;SDS011;5069;49.306;8.636;2023-06-26T14:25:44;10.55;;;7.43;;
10059;SDS011;5069;49.306;8.636;2023-06-26T14:28:49;7.93;;;6.88;;
10059;SDS011;5069;49.306;8.636;2023-06-26T14:31:51;7.07;;;6.38;;
10059;SDS011;5069;49.306;8.636;2023-06-26T14:34:56;9.75;;;6.88;;
10059;SDS011;5069;49.306;8.636;2023-06-26T14:37:59;6.07;;;5.40;;
10059;SDS011;5069;49.306;8.636;2023-06-26T14:41:00;5.38;;;4.65;;
10059;SDS011;5069;49.306;8.636;2023-06-26T14:44:03;8.05;;;3.83;;
10059;SDS011;5069;49.306;8.636;2023-06-26T14:47:06;6.60;;;3.33;;
10059;SDS011;5069;49.306;8.636;2023-06-26T14:50:07;6.70;;;3.33;;
10059;SDS011;5069;49.306;8.636;2023-06-26T14:53:10;4.60;;;3.70;;
10059;SDS011;5069;49.306;8.636;2023-06-26T14:56:11;3.08;;;2.78;;
10059;SDS011;5069;49.306;8.636;2023-06-26T14:59:13;4.93;;;2.38;;
10059;SDS011;5069;49.306;8.636;2023-06-26T15:02:15;5.30;;;2.30;;
10059;SDS011;5069;49.306;8.636;2023-06-26T15:05:16;6.82;;;2.40;;
10059;SDS011;5069;49.306;8.636;2023-06-26T15:08:18;3.20;;;2.03;;
10059;SDS011;5069;49.306;8.636;2023-06-26T15:11:19;1.85;;;1.75;;
10059;SDS011;5069;49.306;8.636;2023-06-26T15:14:21;5.80;;;2.30;;
10059;SDS011;5069;49.306;8.636;2023-06-26T15:17:22;5.18;;;2.10;;
10059;SDS011;5069;49.306;8.636;2023-06-26T15:20:24;5.43;;;2.13;;
10059;SDS011;5069;49.306;8.636;2023-06-26T15:23:25;7.35;;;2.63;;
10059;SDS011;5069;49.306;8.636;2023-06-26T15:26:28;5.40;;;2.38;;
10059;SDS011;5069;49.306;8.636;2023-06-26T15:29:29;3.85;;;2.20;;
10059;SDS011;5069;49.306;8.636;2023-06-26T15:32:31;4.65;;;2.08;;
10059;SDS011;5069;49.306;8.636;2023-06-26T15:35:33;3.05;;;1.98;;
10059;SDS011;5069;49.306;8.636;2023-06-26T15:38:34;3.25;;;2.10;;
10059;SDS011;5069;49.306;8.636;2023-06-26T15:41:36;3.53;;;2.20;;
10059;SDS011;5069;49.306;8.636;2023-06-26T15:44:38;8.40;;;2.40;;
10059;SDS011;5069;49.306;8.636;2023-06-26T15:47:40;3.50;;;2.28;;
10059;SDS011;5069;49.306;8.636;2023-06-26T15:50:42;2.60;;;1.92;;
10059;SDS011;5069;49.306;8.636;2023-06-26T15:53:44;5.32;;;2.20;;
10059;SDS011;5069;49.306;8.636;2023-06-26T15:56:45;4.45;;;1.90;;
10059;SDS011;5069;49.306;8.636;2023-06-26T15:59:48;3.85;;;2.13;;
10059;SDS011;5069;49.306;8.636;2023-06-26T16:02:50;3.60;;;2.30;;
10059;SDS011;5069;49.306;8.636;2023-06-26T16:05:52;2.90;;;2.17;;
10059;SDS011;5069;49.306;8.636;2023-06-26T16:08:55;3.67;;;2.40;;
10059;SDS011;5069;49.306;8.636;2023-06-26T16:11:59;5.80;;;2.20;;
10059;SDS011;5069;49.306;8.636;2023-06-26T16:15:01;7.03;;;2.08;;
10059;SDS011;5069;49.306;8.636;2023-06-26T16:18:02;4.35;;;1.92;;
10059;SDS011;5069;49.306;8.636;2023-06-26T16:21:04;9.82;;;2.42;;
10059;SDS011;5069;49.306;8.636;2023-06-26T16:24:06;4.40;;;2.35;;
10059;SDS011;5069;49.306;8.636;2023-06-26T16:27:07;4.88;;;2.25;;
10059;SDS011;5069;49.306;8.636;2023-06-26T16:30:10;5.78;;;2.10;;
10059;SDS011;5069;49.306;8.636;2023-06-26T16:33:12;2.65;;;1.85;;
10059;SDS011;5069;49.306;8.636;2023-06-26T16:36:14;3.03;;;2.10;;
10059;SDS011;5069;49.306;8.636;2023-06-26T16:39:16;5.75;;;2.20;;
10059;SDS011;5069;49.306;8.636;2023-06-26T16:42:20;3.15;;;2.10;;
10059;SDS011;5069;49.306;8.636;2023-06-26T16:45:22;6.22;;;2.13;;
10059;SDS011;5069;49.306;8.636;2023-06-26T16:48:24;4.25;;;1.83;;
10059;SDS011;5069;49.306;8.636;2023-06-26T16:51:25;3.97;;;2.13;;
10059;SDS011;5069;49.306;8.636;2023-06-26T16:54:27;3.28;;;1.65;;
10059;SDS011;5069;49.306;8.636;2023-06-26T16:57:28;3.17;;;1.95;;
10059;SDS011;5069;49.306;8.636;2023-06-26T17:00:30;3.90;;;1.80;;
10059;SDS011;5069;49.306;8.636;2023-06-26T17:03:33;5.53;;;2.10;;
10059;SDS011;5069;49.306;8.636;2023-06-26T17:06:35;7.18;;;1.80;;
10059;SDS011;5069;49.306;8.636;2023-06-26T17:09:36;2.92;;;1.83;;
10059;SDS011;5069;49.306;8.636;2023-06-26T17:12:38;4.78;;;1.95;;
10059;SDS011;5069;49.306;8.636;2023-06-26T17:15:40;3.10;;;1.80;;
10059;SDS011;5069;49.306;8.636;2023-06-26T17:18:42;4.78;;;2.00;;
10059;SDS011;5069;49.306;8.636;2023-06-26T17:21:43;4.32;;;1.92;;
10059;SDS011;5069;49.306;8.636;2023-06-26T17:24:49;5.47;;;1.75;;
10059;SDS011;5069;49.306;8.636;2023-06-26T17:27:50;6.28;;;1.80;;
10059;SDS011;5069;49.306;8.636;2023-06-26T17:30:54;7.28;;;2.08;;
10059;SDS011;5069;49.306;8.636;2023-06-26T17:33:56;1.90;;;1.65;;
10059;SDS011;5069;49.306;8.636;2023-06-26T17:36:58;5.28;;;2.55;;
10059;SDS011;5069;49.306;8.636;2023-06-26T17:40:05;4.07;;;3.15;;
10059;SDS011;5069;49.306;8.636;2023-06-26T17:43:10;3.67;;;2.92;;
10059;SDS011;5069;49.306;8.636;2023-06-26T17:46:11;5.63;;;2.33;;
10059;SDS011;5069;49.306;8.636;2023-06-26T17:49:13;6.13;;;1.80;;
10059;SDS011;5069;49.306;8.636;2023-06-26T17:52:15;5.10;;;2.20;;
10059;SDS011;5069;49.306;8.636;2023-06-26T17:55:16;2.45;;;1.63;;
10059;SDS011;5069;49.306;8.636;2023-06-26T17:58:18;2.90;;;1.85;;
10059;SDS011;5069;49.306;8.636;2023-06-26T18:01:19;2.55;;;1.77;;
10059;SDS011;5069;49.306;8.636;2023-06-26T18:04:21;2.78;;;1.42;;
10059;SDS011;5069;49.306;8.636;2023-06-26T18:07:23;5.38;;;1.70;;
10059;SDS011;5069;49.306;8.636;2023-06-26T18:10:25;5.63;;;1.95;;
10059;SDS011;5069;49.306;8.636;2023-06-26T18:13:27;5.53;;;1.65;;
10059;SDS011;5069;49.306;8.636;2023-06-26T18:16:29;6.00;;;2.20;;
10059;SDS011;5069;49.306;8.636;2023-06-26T18:19:31;2.72;;;1.52;;
10059;SDS011;5069;49.306;8.636;2023-06-26T18:22:33;6.35;;;1.70;;
10059;SDS011;5069;49.306;8.636;2023-06-26T18:25:35;4.95;;;1.73;;
10059;SDS011;5069;49.306;8.636;2023-06-26T18:28:37;6.80;;;2.03;;
10059;SDS011;5069;49.306;8.636;2023-06-26T18:31:39;6.30;;;2.05;;
10059;SDS011;5069;49.306;8.636;2023-06-26T18:34:40;3.50;;;1.60;;
10059;SDS011;5069;49.306;8.636;2023-06-26T18:37:42;5.15;;;1.88;;
10059;SDS011;5069;49.306;8.636;2023-06-26T18:40:43;4.63;;;1.73;;